Flight Track Log - Related Links

Times and Time Zones

All times are in EST time to prevent confusion due to time zone crossing. See the GJS3649 flight status page for this flight to view local times or setup timezone preferences in your user account.

Time Position Orientation Groundspeed Altitude Reporting Facility
EST Latitude Longitude Course Direction KTS MPH feet Rate Location/Type
Fri 11:37:31 AM 39.1667 -76.7000 211° Southwest 154 177 1,000  Level Potomac TRACON
Fri 11:38:31 AM 39.1833 -76.7667 288° West 182 209 3,500 2,526 Climbing Potomac TRACON
Fri 11:39:25 AM 39.1833 -76.8333 270° West 218 251 5,800 2,789 Climbing Potomac TRACON
Fri 11:40:00 AM 39.2000 -77.1431 270° West  Level FlightAware
Fri 11:40:25 AM 39.2000 -76.9000 288° West 211 243 8,800  Level Potomac TRACON
Fri 11:41:00 AM 39.1241 -77.2128 211° Southwest  Level FlightAware
Fri 11:41:19 AM 39.2000 -76.9667 270° West 229 264 11,100  Level Potomac TRACON
Fri 11:42:00 AM 39.0423 -77.2764 211° Southwest  Level FlightAware
Fri 11:42:13 AM 39.2000 -77.0500 270° West 249 287 12,900  Level Potomac TRACON
Fri 11:44:14 AM 39.1483 -77.2136 248° West 275 316 15,700 1,591 Climbing Washington Center
Fri 11:45:14 AM 39.0725 -77.2814 215° Southwest 308 354 17,700 2,083 Climbing Washington Center
Fri 11:46:15 AM 39.0481 -77.3878 254° West 301 346 19,900 1,950 Climbing Washington Center
Fri 11:47:14 AM 39.0358 -77.5050 262° West 307 353 21,600 1,815 Climbing Washington Center
Fri 11:48:14 AM 39.0233 -77.6303 263° West 333 383 23,500 1,686 Climbing Washington Center
Fri 11:49:15 AM 39.0131 -77.7367 263° West 333 383 25,000 1,462 Climbing Washington Center
Fri 11:50:13 AM 38.9983 -77.8619 261° West 333 383 26,400 1,220 Climbing Washington Center
Fri 11:51:13 AM 38.9856 -77.9844 262° West 338 389 27,400 992 Climbing Washington Center
Fri 11:52:14 AM 38.9725 -78.1067 262° West 343 395 28,400 984 Climbing Washington Center
Fri 11:53:15 AM 38.9614 -78.2344 264° West 356 410 29,400 1,008 Climbing Washington Center
Fri 11:54:13 AM 38.9711 -78.3603 276° West 356 410 30,400 1,059 Climbing Washington Center
Fri 11:55:14 AM 38.9786 -78.4861 274° West 361 415 31,500 984 Climbing Washington Center
Fri 11:56:15 AM 38.9881 -78.6122 276° West 361 415 32,400 857 Climbing Washington Center
Fri 11:57:13 AM 38.9953 -78.7406 274° West 366 421 33,200 756 Climbing Washington Center
Fri 11:58:14 AM 39.0042 -78.8719 275° West 366 421 33,900 595 Climbing Washington Center
Fri 11:59:14 AM 39.0114 -78.9869 275° West 366 421 34,400 550 Climbing Washington Center
Fri 12:00:14 PM 39.0222 -79.1186 276° West 371 427 35,000 298 Climbing Washington Center
Fri 12:01:15 PM 39.0306 -79.2578 274° West 377 434 35,000 100 Level Washington Center
Fri 12:02:14 PM 39.0386 -79.3972 274° West 388 447 35,200 500 Climbing Washington Center
Fri 12:03:15 PM 39.0525 -79.5531 277° West 401 461 36,000 744 Climbing Washington Center
Fri 12:04:15 PM 39.0600 -79.6978 274° West 401 461 36,700 661 Climbing Washington Center
Fri 12:05:13 PM 39.0678 -79.8372 274° West 401 461 37,300 559 Climbing Washington Center
Fri 12:06:13 PM 39.0753 -79.9767 274° West 406 467 37,800 282 Climbing Washington Center
Fri 12:07:42 PM 39.0811 -80.1631 272° West 394 453 38,000 80 Climbing Indianapolis Center
Fri 12:08:43 PM 39.0897 -80.3044 275° West 396 456 38,000  Level Indianapolis Center
Fri 12:09:45 PM 39.0986 -80.4706 274° West 392 451 38,000  Level Indianapolis Center
Fri 12:10:46 PM 39.1183 -80.6044 281° West 393 452 38,000  Level Indianapolis Center
Fri 12:11:48 PM 39.1697 -80.7272 298° West 391 450 38,000  Level Indianapolis Center
Fri 12:12:49 PM 39.2239 -80.8503 300° West 396 456 38,000  Level Indianapolis Center
Fri 12:13:51 PM 39.2767 -80.9714 299° West 392 451 38,000  Level Indianapolis Center
Fri 12:14:52 PM 39.3289 -81.0939 299° West 391 450 38,000  Level Indianapolis Center
Fri 12:16:55 PM 39.4364 -81.3439 300° West 400 460 38,000  Level Indianapolis Center
Fri 12:17:57 PM 39.5006 -81.4961 299° West 404 465 38,000  Level Indianapolis Center
Fri 12:18:58 PM 39.5550 -81.6236 299° West 405 466 38,000  Level Indianapolis Center
Fri 12:20:00 PM 39.6089 -81.7503 299° West 403 464 38,000  Level Indianapolis Center
Fri 12:21:01 PM 39.6619 -81.8781 298° West 404 465 38,000  Level Indianapolis Center
Fri 12:22:03 PM 39.7139 -82.0019 299° West 401 461 38,000  Level Indianapolis Center
Fri 12:23:04 PM 39.7667 -82.1264 299° West 398 458 38,000  Level Indianapolis Center
Fri 12:24:06 PM 39.8181 -82.2503 298° West 393 452 38,000  Level Indianapolis Center
Fri 12:25:07 PM 39.8792 -82.3986 298° West 390 449 38,000  Level Indianapolis Center
Fri 12:26:09 PM 39.9294 -82.5217 298° West 388 447 38,000  Level Indianapolis Center
Fri 12:27:10 PM 39.9800 -82.6442 298° West 386 444 38,000  Level Indianapolis Center
Fri 12:28:11 PM 40.0294 -82.7669 298° West 386 444 38,000  Level Indianapolis Center
Fri 12:29:13 PM 40.0800 -82.8925 298° West 390 449 38,000  Level Indianapolis Center
Fri 12:30:14 PM 40.1319 -83.0181 298° West 394 453 38,000  Level Indianapolis Center
Fri 12:31:16 PM 40.1831 -83.1456 298° West 398 458 38,000  Level Indianapolis Center
Fri 12:32:17 PM 40.2453 -83.2994 298° West 401 461 38,000  Level Indianapolis Center
Fri 12:33:19 PM 40.2969 -83.4292 298° West 404 465 38,000  Level Indianapolis Center
Fri 12:34:20 PM 40.3483 -83.5586 298° West 405 466 38,000  Level Indianapolis Center
Fri 12:35:22 PM 40.3986 -83.6856 298° West 399 459 38,000  Level Indianapolis Center
Fri 12:36:23 PM 40.4506 -83.8144 298° West 400 460 38,000  Level Indianapolis Center
Fri 12:37:25 PM 40.5008 -83.9453 297° West 402 463 38,000  Level Indianapolis Center
Fri 12:38:26 PM 40.5625 -84.1019 297° West 404 465 38,000 -49 Level Indianapolis Center
Fri 12:39:28 PM 40.6139 -84.2347 297° West 407 468 37,900 -1,268 Descending Indianapolis Center
Fri 12:40:29 PM 40.6658 -84.3667 297° West 407 468 35,400 -1,805 Descending Indianapolis Center
Fri 12:41:31 PM 40.7144 -84.4933 297° West 397 457 34,200 -683 Descending Indianapolis Center
Fri 12:42:32 PM 40.7608 -84.6119 297° West 374 430 34,000 -121 Descending Indianapolis Center
Fri 12:43:10 PM 40.7917 -84.6967 296° West 368 423 34,000 -840 Level Chicago Center
Fri 12:44:12 PM 40.8392 -84.8208 297° West 374 430 32,600 -1,645 Descending Chicago Center
Fri 12:45:14 PM 40.8883 -84.9483 297° West 381 438 30,600 -1,452 Descending Chicago Center
Fri 12:46:16 PM 40.9356 -85.0789 296° West 388 447 29,600 -968 Descending Chicago Center
Fri 12:47:18 PM 40.9803 -85.1992 296° West 374 430 28,600 -919 Descending Chicago Center
Fri 12:48:20 PM 41.0264 -85.3253 296° West 376 433 27,700 -871 Descending Chicago Center
Fri 12:49:22 PM 41.0822 -85.4800 296° West 385 443 26,800 -726 Descending Chicago Center
Fri 12:50:24 PM 41.1297 -85.6100 296° West 389 448 26,200 -581 Descending Chicago Center
Fri 12:51:26 PM 41.1764 -85.7403 295° West 389 448 25,600 -581 Descending Chicago Center
Fri 12:52:28 PM 41.2231 -85.8689 296° West 387 445 25,000 -439 Descending Chicago Center
Fri 12:53:29 PM 41.2692 -85.9983 295° West 386 444 24,700 -976 Descending Chicago Center
Fri 12:54:31 PM 41.2936 -86.1317 284° West 368 423 23,000 -1,645 Descending Chicago Center
Fri 12:55:33 PM 41.3092 -86.2717 278° West 378 435 21,300 -1,645 Descending Chicago Center
Fri 12:56:35 PM 41.3258 -86.4106 279° West 381 438 19,600 -2,081 Descending Chicago Center
Fri 12:57:37 PM 41.4067 -86.5414 310° West 393 452 17,000 -2,177 Descending Chicago Center
Fri 12:58:39 PM 41.4914 -86.6275 323° Northwest 385 443 15,100 -1,742 Descending Chicago Center
Fri 12:59:41 PM 41.5703 -86.7075 323° Northwest 363 418 13,400 -1,500 Descending Chicago Center
Fri 01:00:43 PM 41.6578 -86.7897 325° Northwest 349 402 12,000 -677 Descending Chicago Center
Fri 01:01:45 PM 41.7500 -86.8064 352° North 339 390 12,000  Level Chicago Center
Fri 01:02:47 PM 41.8444 -86.8253 352° North 342 394 12,000  Level Chicago Center
Fri 01:03:49 PM 41.9208 -86.8950 326° Northwest 340 391 12,000 -532 Level Chicago Center
Fri 01:04:51 PM 41.9586 -86.9939 297° West 302 348 10,900 -1,403 Descending Chicago Center
Fri 01:05:53 PM 41.9806 -87.1028 285° West 258 297 9,100 -919 Descending Chicago Center
Fri 01:06:55 PM 41.9814 -87.1972 271° West 253 291 9,000 -48 Descending Chicago Center
Fri 01:07:57 PM 41.9831 -87.2944 271° West 259 298 9,000 -290 Level Chicago Center
Fri 01:08:59 PM 41.9828 -87.3908 270° West 261 300 8,400 -919 Descending Chicago Center
Fri 01:10:01 PM 41.9819 -87.4794 269° West 243 280 7,100 -1,161 Descending Chicago Center
Fri 01:11:03 PM 41.9806 -87.5575 269° West 218 251 6,000 -1,210 Descending Chicago Center
Fri 01:12:05 PM 41.9847 -87.6492 274° West 209 241 4,600 -1,210 Descending Chicago Center
Fri 01:13:07 PM 41.9856 -87.7153 271° West 198 228 3,500 -1,016 Descending Chicago Center
Fri 01:14:09 PM 41.9842 -87.7753 268° West 181 208 2,500 -871 Descending Chicago Center
Fri 01:15:11 PM 41.9839 -87.8286 270° West 164 189 1,700 -532 Descending Chicago Center
Fri 01:16:13 PM 41.9844 -87.8858 271° West 155 178 1,400 -290 Descending Chicago Center
Fri 01:18:00 PM 41.9667 -87.9000 270° West  Level FlightAware

Login

Don't have an account? Register now (free) for customized features, flight alerts, and more!